Time;durP1;ratioP1;P1;durP2;ratioP2;P2;SDS_P1;SDS_P2;PMS_P1;PMS_P2;Temp;Humidity;BMP_temperature;BMP_pressure;BME280_temperature;BME280_humidity;BME280_pressure;Samples;Min_cycle;Max_cycle;Signal;HPM_P1;HPM_P2
2021/07/05 00:01:52;;;;;;;5.13;3.35;;;;;;;17.51;96.18;100282.28;5047448;28;21433;-88
2021/07/05 00:04:26;;;;;;;3.72;2.92;;;;;;;17.48;96.64;100285.94;5062460;28;20040;-87
2021/07/05 00:06:53;;;;;;;4.85;3.53;;;;;;;17.46;96.91;100281.63;5042978;28;20043;-86
2021/07/05 00:09:26;;;;;;;3.15;2.95;;;;;;;17.47;97.04;100291.25;5063405;28;20050;-86
2021/07/05 00:11:53;;;;;;;3.60;3.10;;;;;;;17.47;97.11;100283.31;5033265;28;20529;-86
2021/07/05 00:14:22;;;;;;;5.47;3.17;;;;;;;17.45;97.24;100279.91;5031833;28;20041;-88
2021/07/05 00:17:00;;;;;;;5.43;3.53;;;;;;;17.42;97.53;100283.53;5035887;28;20147;-87
2021/07/05 00:19:32;;;;;;;3.45;3.13;;;;;;;17.38;97.71;100286.38;5023690;28;20436;-87
2021/07/05 00:22:14;;;;;;;3.85;3.55;;;;;;;17.34;98.12;100289.16;5058718;28;20056;-90
2021/07/05 00:24:41;;;;;;;3.55;3.17;;;;;;;17.32;98.18;100284.84;5020871;28;20037;-85
2021/07/05 00:27:09;;;;;;;3.90;3.60;;;;;;;17.29;98.22;100285.84;5038668;28;20091;-88
2021/07/05 00:29:43;;;;;;;4.68;4.10;;;;;;;17.27;98.42;100292.13;5052482;28;20100;-88
2021/07/05 00:32:22;;;;;;;3.45;3.05;;;;;;;17.25;98.62;100283.38;5075247;28;20044;-90
2021/07/05 00:34:56;;;;;;;4.88;3.40;;;;;;;17.21;98.40;100285.31;5063759;28;21354;-87
2021/07/05 00:37:28;;;;;;;4.05;2.83;;;;;;;17.19;98.57;100290.69;5047633;28;20032;-86
2021/07/05 00:39:55;;;;;;;4.20;3.25;;;;;;;17.18;98.21;100293.38;5026803;28;20049;-87
2021/07/05 00:42:24;;;;;;;4.13;3.47;;;;;;;17.19;98.37;100284.53;5035253;28;20040;-86
2021/07/05 00:44:52;;;;;;;7.32;3.30;;;;;;;17.19;98.03;100284.53;5056298;28;20475;-89
2021/07/05 00:47:24;;;;;;;3.47;3.17;;;;;;;17.19;97.90;100280.09;5026280;28;20037;-89
2021/07/05 00:49:50;;;;;;;5.38;3.17;;;;;;;17.21;97.57;100277.38;5063027;28;20052;-95
2021/07/05 00:52:17;;;;;;;3.60;3.20;;;;;;;17.23;96.81;100278.16;5066275;28;20031;-94
2021/07/05 00:55:00;;;;;;;8.02;3.85;;;;;;;17.25;96.17;100278.97;5076849;28;20045;-87
2021/07/05 00:57:28;;;;;;;6.30;3.30;;;;;;;17.24;95.96;100271.09;5044639;28;20438;-87
2021/07/05 01:00:00;;;;;;;3.42;3.13;;;;;;;17.22;95.62;100275.59;5030513;28;20366;-90
2021/07/05 01:02:28;;;;;;;3.45;3.15;;;;;;;17.18;95.68;100285.44;5045784;28;20040;-87
2021/07/05 01:04:56;;;;;;;4.22;3.55;;;;;;;17.13;95.65;100282.13;5032593;28;20059;-88
2021/07/05 01:07:24;;;;;;;4.38;3.42;;;;;;;17.10;95.67;100284.91;5045012;28;20474;-87
2021/07/05 01:09:52;;;;;;;4.40;4.10;;;;;;;17.07;95.80;100277.13;5040725;28;20408;-89
2021/07/05 01:12:19;;;;;;;3.95;3.58;;;;;;;17.03;95.72;100273.72;5039268;28;20056;-89
2021/07/05 01:14:46;;;;;;;7.28;3.50;;;;;;;17.01;96.09;100267.63;5046903;28;20063;-89
2021/07/05 01:17:22;;;;;;;7.70;4.75;;;;;;;16.98;96.21;100265.13;5028522;28;20052;-87
2021/07/05 01:19:51;;;;;;;4.40;3.97;;;;;;;16.96;95.92;100265.19;5051340;28;20060;-88
2021/07/05 01:22:20;;;;;;;4.32;3.85;;;;;;;16.96;96.21;100267.84;5013812;28;20455;-87
2021/07/05 01:24:49;;;;;;;6.40;5.22;;;;;;;16.96;95.95;100262.56;5052544;28;20037;-87
2021/07/05 01:27:18;;;;;;;5.97;5.38;;;;;;;16.96;95.99;100264.31;5026762;28;20478;-87
2021/07/05 01:29:46;;;;;;;6.88;5.30;;;;;;;16.96;96.20;100248.47;5060196;28;20053;-92
2021/07/05 01:32:13;;;;;;;9.48;4.93;;;;;;;16.98;95.88;100252.75;5072626;28;20041;-87
2021/07/05 01:34:41;;;;;;;5.95;5.40;;;;;;;16.96;95.79;100257.28;5029286;28;20053;-91
2021/07/05 01:37:12;;;;;;;6.97;6.28;;;;;;;16.93;95.70;100261.81;5060142;28;20053;-87
2021/07/05 01:39:40;;;;;;;8.35;6.65;;;;;;;16.88;95.49;100256.69;5042512;28;20037;-87
2021/07/05 01:42:09;;;;;;;9.95;6.00;;;;;;;16.87;96.12;100258.47;5044742;28;20060;-87
2021/07/05 01:44:37;;;;;;;6.60;5.80;;;;;;;16.90;95.87;100257.53;5040593;28;20045;-90
2021/07/05 01:47:05;;;;;;;6.53;6.03;;;;;;;16.91;95.88;100261.00;5047604;28;20048;-87
2021/07/05 01:49:44;;;;;;;9.27;8.30;;;;;;;16.89;95.72;100254.91;5069441;28;20053;-90
2021/07/05 01:52:13;;;;;;;7.72;6.95;;;;;;;16.91;95.71;100255.72;5034269;28;20067;-89
2021/07/05 01:54:42;;;;;;;7.57;6.85;;;;;;;16.90;95.64;100261.94;5048645;28;20052;-88
2021/07/05 01:57:24;;;;;;;7.55;6.78;;;;;;;16.85;95.63;100260.31;5029472;28;21067;-90
2021/07/05 01:59:58;;;;;;;13.68;8.00;;;;;;;16.81;95.95;100266.66;5065460;28;20040;-87
2021/07/05 02:02:26;;;;;;;8.95;8.07;;;;;;;16.74;96.18;100267.84;5023023;28;20057;-88
2021/07/05 02:04:54;;;;;;;8.32;7.18;;;;;;;16.71;96.25;100262.66;5036447;28;20479;-87
2021/07/05 02:07:23;;;;;;;9.65;8.43;;;;;;;16.66;96.53;100264.63;5045013;28;20040;-88
2021/07/05 02:09:51;;;;;;;9.27;8.32;;;;;;;16.64;96.57;100269.13;5050648;28;20400;-87
2021/07/05 02:12:18;;;;;;;14.65;9.80;;;;;;;16.63;96.90;100273.53;5053374;28;20063;-87
2021/07/05 02:14:47;;;;;;;9.43;8.32;;;;;;;16.61;96.93;100254.25;5035021;28;20049;-89
2021/07/05 02:17:14;;;;;;;12.43;9.05;;;;;;;16.61;96.77;100263.94;5030807;28;20052;-91
2021/07/05 02:19:49;;;;;;;9.30;8.43;;;;;;;16.58;97.11;100257.00;5051286;28;20047;-89
2021/07/05 02:22:18;;;;;;;10.40;9.30;;;;;;;16.60;96.88;100256.97;5053738;28;20470;-88
2021/07/05 02:24:47;;;;;;;10.23;9.10;;;;;;;16.58;96.86;100257.00;5033958;28;20044;-92
2021/07/05 02:27:18;;;;;;;10.43;9.43;;;;;;;16.56;96.60;100260.63;5050078;28;20049;-90
2021/07/05 02:29:45;;;;;;;10.38;9.40;;;;;;;16.52;96.61;100263.41;5025946;28;20107;-89
2021/07/05 02:32:13;;;;;;;11.30;9.90;;;;;;;16.47;96.99;100254.81;5018217;28;20110;-88
2021/07/05 02:37:22;;;;;;;9.57;8.27;;;;;;;16.40;96.98;100257.75;5044287;28;20479;-89
2021/07/05 02:39:49;;;;;;;9.40;7.85;;;;;;;16.38;97.31;100257.81;5032171;28;20204;-90
2021/07/05 02:42:19;;;;;;;10.35;7.50;;;;;;;16.37;97.69;100258.72;5050136;28;20498;-87
2021/07/05 02:44:53;;;;;;;9.93;8.93;;;;;;;16.33;97.55;100255.34;5039861;28;20048;-87
2021/07/05 02:47:22;;;;;;;10.90;8.30;;;;;;;16.29;97.76;100252.91;5015722;28;20651;-87
2021/07/05 02:49:49;;;;;;;10.63;8.68;;;;;;;16.24;97.60;100255.69;5024453;28;20049;-87
2021/07/05 02:52:19;;;;;;;21.10;8.70;;;;;;;16.18;97.82;100264.75;5034800;28;20041;-87
2021/07/05 02:54:51;;;;;;;9.75;8.68;;;;;;;16.13;97.86;100265.84;5035602;28;20111;-89
2021/07/05 02:57:30;;;;;;;9.75;7.32;;;;;;;16.07;98.21;100266.91;5038038;28;20037;-87
2021/07/05 03:00:26;;;;;;;11.05;8.48;;;;;;;16.02;98.75;100272.38;5056056;28;20046;-93
2021/07/05 03:03:00;;;;;;;12.13;8.73;;;;;;;15.98;98.62;100273.44;5090343;28;20092;-92
2021/07/05 03:05:30;;;;;;;9.23;7.03;;;;;;;15.93;98.70;100272.75;5045085;28;20045;-87
2021/07/05 03:08:05;;;;;;;8.85;7.72;;;;;;;15.87;99.02;100273.81;5043861;28;20043;-87
2021/07/05 03:10:36;;;;;;;9.38;8.48;;;;;;;15.86;99.29;100279.16;5049952;28;20503;-88
2021/07/05 03:13:10;;;;;;;10.52;8.85;;;;;;;15.84;99.62;100279.22;5021868;28;20052;-87
2021/07/05 03:15:44;;;;;;;12.85;9.35;;;;;;;15.85;99.45;100273.03;5050889;28;20644;-87
2021/07/05 03:18:12;;;;;;;13.65;8.70;;;;;;;15.83;99.07;100279.28;5043894;28;20039;-87
2021/07/05 03:20:43;;;;;;;9.70;7.32;;;;;;;15.80;99.31;100282.84;5050928;28;20473;-89
2021/07/05 03:23:13;;;;;;;14.05;9.85;;;;;;;15.79;99.55;100278.50;5037083;28;20063;-86
2021/07/05 03:25:42;;;;;;;10.70;8.02;;;;;;;15.79;99.80;100275.84;5032013;28;20052;-87
2021/07/05 03:28:11;;;;;;;12.63;10.13;;;;;;;15.77;99.83;100277.66;5047723;28;20483;-91
2021/07/05 03:30:42;;;;;;;11.82;9.20;;;;;;;15.79;99.64;100280.28;5039815;28;20502;-86
2021/07/05 03:33:09;;;;;;;7.97;7.22;;;;;;;15.79;99.55;100280.28;5033834;28;20041;-91
2021/07/05 03:35:37;;;;;;;9.23;8.15;;;;;;;15.81;99.39;100281.09;5061420;28;20176;-86
2021/07/05 03:38:21;;;;;;;10.32;8.77;;;;;;;15.83;99.11;100277.47;5039043;28;20079;-89
2021/07/05 03:40:49;;;;;;;8.80;7.75;;;;;;;15.84;98.96;100278.38;5044123;28;20043;-87
2021/07/05 03:43:19;;;;;;;11.23;7.97;;;;;;;15.82;98.44;100267.00;5045089;28;20163;-87
2021/07/05 03:45:46;;;;;;;9.48;8.50;;;;;;;15.81;98.64;100271.41;5031704;28;20093;-89
2021/07/05 03:48:13;;;;;;;8.60;7.75;;;;;;;15.80;98.34;100274.06;5026124;28;20060;-86
2021/07/05 03:50:41;;;;;;;9.30;8.43;;;;;;;15.75;98.07;100273.38;5016202;28;20044;-89
2021/07/05 03:53:11;;;;;;;7.72;7.03;;;;;;;15.73;97.98;100269.94;5050983;28;20044;-90
2021/07/05 03:55:43;;;;;;;11.10;7.68;;;;;;;15.72;98.03;100266.41;5043768;28;20053;-91
2021/07/05 03:58:13;;;;;;;8.38;7.57;;;;;;;15.72;97.75;100258.50;5030297;28;20049;-89
2021/07/05 04:00:40;;;;;;;8.30;7.50;;;;;;;15.75;97.57;100255.78;5049225;28;20048;-90
2021/07/05 04:03:10;;;;;;;10.57;8.15;;;;;;;15.79;97.36;100248.59;5049309;28;20551;-89
2021/07/05 04:05:37;;;;;;;8.13;7.43;;;;;;;15.78;96.76;100237.16;5013600;28;20464;-90
2021/07/05 04:08:05;;;;;;;7.20;6.60;;;;;;;15.78;96.81;100242.44;5034453;28;20479;-89
2021/07/05 04:10:40;;;;;;;6.00;5.43;;;;;;;15.78;96.62;100238.97;5045683;28;20478;-88
2021/07/05 04:13:10;;;;;;;6.38;5.78;;;;;;;15.79;96.56;100249.47;5038877;28;20501;-87
2021/07/05 04:15:39;;;;;;;12.73;8.48;;;;;;;15.80;97.13;100245.91;5064459;28;20127;-85
2021/07/05 04:18:09;;;;;;;8.77;7.05;;;;;;;15.84;96.84;100244.06;5049372;28;20048;-87
2021/07/05 04:20:42;;;;;;;7.93;6.90;;;;;;;15.82;96.33;100241.44;5065118;28;20055;-92
2021/07/05 04:23:09;;;;;;;11.18;6.57;;;;;;;15.79;96.57;100245.97;5051435;28;20083;-91
2021/07/05 04:25:40;;;;;;;8.93;6.45;;;;;;;15.74;96.44;100235.56;5072579;28;20051;-91
2021/07/05 04:28:09;;;;;;;15.93;6.95;;;;;;;15.70;96.41;100239.25;5051859;28;20037;-88
2021/07/05 04:30:38;;;;;;;5.88;5.35;;;;;;;15.65;96.99;100249.09;5064273;28;20529;-87
2021/07/05 04:33:06;;;;;;;7.25;5.57;;;;;;;15.58;97.03;100251.13;5070508;28;20135;-87
2021/07/05 04:35:34;;;;;;;5.50;4.30;;;;;;;15.54;97.28;100252.16;5068610;28;20040;-89
2021/07/05 04:38:04;;;;;;;4.05;3.65;;;;;;;15.52;97.46;100251.31;5068436;28;20049;-88
2021/07/05 04:40:36;;;;;;;5.07;4.57;;;;;;;15.49;97.53;100254.94;5067773;28;20057;-91
2021/07/05 04:43:17;;;;;;;7.63;4.18;;;;;;;15.46;97.45;100248.91;5088320;28;20093;-87
2021/07/05 04:45:46;;;;;;;4.28;3.88;;;;;;;15.43;97.37;100249.03;5045039;28;20431;-88
2021/07/05 04:48:15;;;;;;;5.05;3.38;;;;;;;15.39;97.41;100246.47;5049334;28;20048;-89
2021/07/05 04:50:43;;;;;;;4.13;3.60;;;;;;;15.36;97.26;100238.69;5057968;28;20036;-89
2021/07/05 04:53:10;;;;;;;3.38;2.95;;;;;;;15.35;97.35;100251.94;5032891;28;20048;-89
2021/07/05 04:55:38;;;;;;;3.63;3.05;;;;;;;15.32;97.43;100242.34;5058671;28;20052;-85
2021/07/05 04:58:05;;;;;;;4.60;3.92;;;;;;;15.31;97.40;100252.94;5080814;28;20058;-89
2021/07/05 05:00:35;;;;;;;3.75;3.40;;;;;;;15.30;97.70;100259.97;5061154;28;20067;-88
2021/07/05 05:03:05;;;;;;;4.80;3.60;;;;;;;15.29;97.65;100250.38;5081800;28;20040;-93
2021/07/05 05:05:33;;;;;;;4.35;2.88;;;;;;;15.29;97.70;100249.50;5083583;28;20079;-91
2021/07/05 05:08:12;;;;;;;3.42;2.60;;;;;;;15.28;97.86;100251.28;5074687;28;20082;-89
2021/07/05 05:13:28;;;;;;;4.47;2.47;;;;;;;15.29;97.59;100250.38;5062794;28;20133;-87
2021/07/05 05:15:55;;;;;;;2.65;2.55;;;;;;;15.31;97.54;100252.94;5039619;28;20055;-89
2021/07/05 05:18:24;;;;;;;3.63;2.13;;;;;;;15.31;97.65;100258.22;5028331;28;20049;-85
2021/07/05 05:20:51;;;;;;;3.03;2.70;;;;;;;15.33;97.57;100254.63;5033532;28;20107;-87
2021/07/05 05:23:20;;;;;;;2.42;2.22;;;;;;;15.37;97.54;100239.56;5051784;28;20033;-88
2021/07/05 05:25:57;;;;;;;4.70;2.78;;;;;;;15.40;97.52;100252.63;5028750;28;20059;-87
2021/07/05 05:28:26;;;;;;;2.90;2.30;;;;;;;15.43;96.78;100249.03;5046088;28;20488;-86
2021/07/05 05:30:53;;;;;;;3.38;2.50;;;;;;;15.46;96.49;100247.13;5026065;28;20609;-86
2021/07/05 05:33:22;;;;;;;7.57;2.10;;;;;;;15.48;96.60;100249.72;5032031;28;20052;-90
2021/07/05 05:35:49;;;;;;;2.90;1.92;;;;;;;15.51;96.54;100246.97;5057029;28;20707;-87
2021/07/05 05:38:17;;;;;;;2.80;1.50;;;;;;;15.58;96.23;100250.22;5045657;28;20479;-85
2021/07/05 05:40:44;;;;;;;10.98;2.63;;;;;;;15.66;95.98;100245.56;5048990;28;20498;-86
2021/07/05 05:43:11;;;;;;;3.10;1.90;;;;;;;15.71;95.28;100249.75;5031545;28;20044;-88
2021/07/05 05:45:43;;;;;;;5.80;3.22;;;;;;;15.81;95.20;100258.22;5052016;28;20055;-87
2021/07/05 05:48:10;;;;;;;2.40;2.30;;;;;;;15.87;94.97;100263.25;5031951;28;20045;-87
2021/07/05 05:50:37;;;;;;;4.15;2.05;;;;;;;15.95;94.62;100257.69;5048499;28;20722;-88
2021/07/05 05:53:03;;;;;;;5.50;1.92;;;;;;;16.02;94.17;100256.56;5054092;28;20072;-86
2021/07/05 05:55:30;;;;;;;2.60;1.80;;;;;;;16.08;94.00;100260.72;5052612;28;20167;-91
2021/07/05 05:57:58;;;;;;;5.57;1.95;;;;;;;16.13;93.66;100253.50;5051821;28;20033;-87
2021/07/05 06:00:27;;;;;;;3.08;1.55;;;;;;;16.19;93.51;100249.75;5052659;28;20596;-87
2021/07/05 06:02:55;;;;;;;1.05;1.05;;;;;;;16.24;93.50;100246.94;5059524;28;20163;-87
2021/07/05 06:05:24;;;;;;;1.52;1.42;;;;;;;16.30;92.68;100247.56;5054048;28;20048;-86
2021/07/05 06:07:51;;;;;;;2.95;1.50;;;;;;;16.34;92.39;100240.38;5039781;28;20037;-87
2021/07/05 06:10:23;;;;;;;4.57;1.27;;;;;;;16.39;92.26;100238.41;5040118;28;20056;-86
2021/07/05 06:12:54;;;;;;;7.60;2.45;;;;;;;16.48;92.50;100240.69;5030781;28;20368;-87
2021/07/05 06:15:24;;;;;;;6.47;1.45;;;;;;;16.55;92.02;100241.28;5069522;28;20163;-89
2021/07/05 06:17:53;;;;;;;2.58;1.50;;;;;;;16.59;91.60;100232.31;5084912;28;20100;-85
2021/07/05 06:20:21;;;;;;;7.45;1.88;;;;;;;16.65;91.09;100232.06;5054221;28;20047;-87
2021/07/05 06:22:53;;;;;;;1.92;1.15;;;;;;;16.68;90.22;100231.94;5057825;28;20143;-87
2021/07/05 06:25:20;;;;;;;1.77;1.23;;;;;;;16.72;90.43;100237.09;5052852;28;20646;-86
2021/07/05 06:27:48;;;;;;;3.00;2.35;;;;;;;16.76;90.38;100230.78;5070398;28;20048;-87
2021/07/05 06:30:23;;;;;;;1.38;1.25;;;;;;;16.82;90.28;100233.16;5055591;28;20040;-90
2021/07/05 06:32:49;;;;;;;3.38;1.10;;;;;;;16.86;88.34;100226.81;5068991;28;20110;-86
2021/07/05 06:35:17;;;;;;;2.08;1.38;;;;;;;16.89;89.07;100226.69;5049612;28;20044;-86
2021/07/05 06:37:48;;;;;;;2.25;0.98;;;;;;;16.94;89.33;100232.66;5072088;28;20044;-86
2021/07/05 06:40:15;;;;;;;8.00;2.25;;;;;;;17.03;88.75;100223.50;5074352;28;20080;-85
2021/07/05 06:42:42;;;;;;;5.03;1.27;;;;;;;17.11;88.78;100229.31;5093754;28;20036;-87
2021/07/05 06:45:10;;;;;;;2.10;1.45;;;;;;;17.24;88.37;100218.22;5069630;28;20040;-86
2021/07/05 06:47:37;;;;;;;2.08;1.17;;;;;;;17.35;87.41;100223.88;5048805;28;20051;-86
2021/07/05 06:50:06;;;;;;;4.25;1.20;;;;;;;17.43;87.11;100231.47;5072928;28;20067;-87
2021/07/05 06:52:37;;;;;;;2.78;0.95;;;;;;;17.50;86.65;100225.84;5071602;28;20083;-87
2021/07/05 06:55:06;;;;;;;3.72;1.20;;;;;;;17.56;86.45;100221.19;5068506;28;20054;-87
2021/07/05 06:57:34;;;;;;;0.95;0.95;;;;;;;17.64;86.67;100219.09;5056162;28;20159;-86
2021/07/05 07:00:07;;;;;;;1.48;1.38;;;;;;;17.75;86.14;100223.88;5072126;28;20044;-91
2021/07/05 07:02:39;;;;;;;3.50;1.75;;;;;;;17.85;85.73;100228.66;5088921;28;20050;-86
2021/07/05 07:05:10;;;;;;;3.40;1.27;;;;;;;18.04;85.87;100227.00;5073873;28;20048;-89
2021/07/05 07:07:46;;;;;;;2.38;1.00;;;;;;;18.21;84.57;100224.38;5059748;28;20040;-87
2021/07/05 07:10:19;;;;;;;0.75;0.75;;;;;;;18.39;83.91;100220.00;5071761;28;20044;-87
2021/07/05 07:12:48;;;;;;;1.60;1.20;;;;;;;18.62;82.40;100218.88;5056703;28;20576;-86
2021/07/05 07:15:21;;;;;;;0.95;0.93;;;;;;;18.87;81.38;100215.00;5050309;28;20146;-85
2021/07/05 07:17:53;;;;;;;1.38;0.85;;;;;;;19.09;80.06;100216.59;5036193;28;20075;-88
2021/07/05 07:20:27;;;;;;;1.40;1.27;;;;;;;19.34;79.53;100205.56;5058416;28;20049;-87
2021/07/05 07:22:55;;;;;;;1.77;1.60;;;;;;;19.63;78.06;100209.31;5050688;28;20497;-86
2021/07/05 07:25:23;;;;;;;1.25;1.17;;;;;;;19.94;75.97;100204.16;5047948;28;20040;-87
2021/07/05 07:27:51;;;;;;;1.58;1.10;;;;;;;20.20;74.50;100202.69;5046308;28;20506;-88
2021/07/05 07:30:24;;;;;;;1.60;1.48;;;;;;;20.59;72.61;100187.22;5052884;28;20059;-88
2021/07/05 07:32:51;;;;;;;1.17;1.17;;;;;;;20.95;70.97;100193.97;5053222;28;20045;-90
2021/07/05 07:35:19;;;;;;;2.40;1.20;;;;;;;21.15;69.72;100192.78;5057928;28;20044;-88
2021/07/05 07:37:53;;;;;;;1.23;1.13;;;;;;;21.38;67.98;100201.16;5036031;28;20045;-86
2021/07/05 07:40:22;;;;;;;1.60;0.95;;;;;;;21.65;67.96;100198.63;5077022;28;20552;-90
2021/07/05 07:42:50;;;;;;;3.03;1.60;;;;;;;21.88;65.87;100191.00;5037172;28;20048;-87
2021/07/05 07:45:20;;;;;;;0.88;0.88;;;;;;;22.24;64.47;100185.13;5056443;28;20123;-90
2021/07/05 07:47:49;;;;;;;1.65;1.05;;;;;;;22.63;62.72;100186.13;5055171;28;20055;-85
2021/07/05 07:50:21;;;;;;;0.80;0.80;;;;;;;22.78;60.85;100183.38;5055583;28;20044;-86
2021/07/05 07:52:48;;;;;;;6.18;1.55;;;;;;;22.89;60.56;100187.97;5042432;28;20044;-86
2021/07/05 07:55:18;;;;;;;2.88;1.17;;;;;;;23.10;60.80;100188.31;5052088;28;20124;-88
2021/07/05 07:57:45;;;;;;;2.80;1.30;;;;;;;23.26;59.92;100180.16;5047384;28;20151;-85
2021/07/05 08:00:15;;;;;;;4.80;1.40;;;;;;;23.24;58.51;100177.56;5032567;28;20139;-87
2021/07/05 08:02:45;;;;;;;1.00;0.90;;;;;;;23.25;58.64;100179.28;5036328;28;20517;-87
2021/07/05 08:05:16;;;;;;;5.45;2.65;;;;;;;23.17;58.72;100183.47;5050351;28;20101;-86
2021/07/05 08:07:46;;;;;;;3.22;1.17;;;;;;;23.10;58.58;100182.97;5055826;28;20060;-86
2021/07/05 08:10:17;;;;;;;0.88;0.75;;;;;;;22.96;58.53;100189.28;5053034;28;20072;-86
2021/07/05 08:12:46;;;;;;;1.00;0.95;;;;;;;22.88;58.44;100188.94;5071368;28;20588;-87
2021/07/05 08:15:18;;;;;;;1.70;1.02;;;;;;;22.61;58.93;100201.38;5055242;28;20208;-89
2021/07/05 08:17:47;;;;;;;0.70;0.70;;;;;;;22.51;59.17;100197.59;5082702;28;20120;-85
2021/07/05 08:20:20;;;;;;;2.00;1.27;;;;;;;22.46;59.75;100202.38;5065578;28;20060;-85
2021/07/05 08:22:52;;;;;;;;;;;;;;;22.34;60.00;100201.34;5082619;28;20127;-86
2021/07/05 08:28:05;;;;;;;1.65;1.00;;;;;;;22.52;59.28;100198.47;5059382;28;20048;-87
2021/07/05 08:30:41;;;;;;;1.25;1.10;;;;;;;22.39;57.80;100201.94;5064175;28;20135;-85
2021/07/05 08:33:08;;;;;;;0.90;0.85;;;;;;;22.56;58.70;100203.47;5050156;28;20045;-86
2021/07/05 08:35:42;;;;;;;0.75;0.75;;;;;;;22.73;58.32;100194.34;5046717;28;20065;-86
2021/07/05 08:38:16;;;;;;;5.95;1.58;;;;;;;22.82;58.30;100202.72;5039824;28;20040;-87
2021/07/05 08:40:46;;;;;;;0.75;0.68;;;;;;;22.91;58.00;100204.75;5040953;28;20037;-88
2021/07/05 08:43:14;;;;;;;1.05;1.05;;;;;;;22.91;56.69;100210.09;5075032;28;20033;-89
2021/07/05 08:49:27;;;;;;;2.37;0.70;;;;;;;23.04;56.58;100199.44;5064043;28;20041;-86
2021/07/05 08:52:01;;;;;;;1.48;1.30;;;;;;;22.98;56.89;100200.69;5061722;28;20449;-86
2021/07/05 08:54:29;;;;;;;2.67;0.90;;;;;;;22.85;57.42;100192.66;5046768;28;20041;-89
2021/07/05 08:56:58;;;;;;;1.20;0.75;;;;;;;22.65;57.59;100198.50;5061226;28;20043;-92
2021/07/05 08:59:33;;;;;;;3.00;0.95;;;;;;;22.54;58.34;100196.53;5089728;28;20033;-88
2021/07/05 09:02:10;;;;;;;0.70;0.70;;;;;;;22.36;58.88;100186.16;5045229;28;20045;-85
2021/07/05 09:04:38;;;;;;;1.25;1.20;;;;;;;22.25;59.64;100193.97;5061281;28;20044;-87
2021/07/05 09:07:13;;;;;;;1.00;1.00;;;;;;;22.18;60.19;100195.31;5047725;28;20525;-87
2021/07/05 09:09:59;;;;;;;0.60;0.60;;;;;;;22.10;60.69;100190.50;5055035;28;20032;-87
2021/07/05 09:12:27;;;;;;;3.47;1.70;;;;;;;22.11;61.27;100193.06;5060311;28;21005;-88
2021/07/05 09:15:11;;;;;;;4.40;1.73;;;;;;;22.06;62.58;100189.81;5049734;28;20044;-87
2021/07/05 09:17:44;;;;;;;4.18;1.35;;;;;;;21.97;63.43;100193.09;5053751;28;20064;-86
2021/07/05 09:20:14;;;;;;;3.05;1.60;;;;;;;21.90;63.93;100191.75;5064392;28;20502;-89
2021/07/05 09:23:12;;;;;;;2.33;0.90;;;;;;;21.84;65.04;100200.13;5070249;28;20075;-86
2021/07/05 09:25:52;;;;;;;1.40;1.13;;;;;;;21.43;64.41;100210.59;5072180;28;20867;-86
2021/07/05 09:28:22;;;;;;;0.77;0.75;;;;;;;21.05;65.75;100207.59;5069727;28;20044;-87
2021/07/05 09:30:56;;;;;;;2.30;1.10;;;;;;;20.91;66.34;100214.63;5069980;28;20114;-87
2021/07/05 09:33:24;;;;;;;;;;;;;;;20.87;66.57;100218.41;5071468;28;20036;-87
2021/07/05 09:36:00;;;;;;;1.65;0.77;;;;;;;20.91;66.35;100213.72;5071845;28;19927;-86
2021/07/05 09:38:41;;;;;;;0.80;0.80;;;;;;;20.85;67.14;100220.28;5050182;28;20406;-86
2021/07/05 09:41:33;;;;;;;2.33;0.80;;;;;;;20.60;69.59;100223.50;5067945;28;20040;-85
2021/07/05 09:44:09;;;;;;;1.95;0.95;;;;;;;20.24;70.67;100228.16;5049871;28;20044;-87
2021/07/05 09:46:50;;;;;;;3.55;1.27;;;;;;;20.05;71.82;100233.66;5053154;28;20098;-85
2021/07/05 09:49:32;;;;;;;3.10;1.00;;;;;;;19.88;72.79;100236.38;5083285;28;20036;-89
2021/07/05 09:52:25;;;;;;;1.02;0.95;;;;;;;19.67;74.32;100236.53;5069287;28;20048;-87
2021/07/05 09:54:55;;;;;;;1.65;1.15;;;;;;;19.54;77.37;100244.31;5048802;28;20052;-88
2021/07/05 09:57:40;;;;;;;3.63;1.50;;;;;;;19.38;77.95;100252.22;5064677;28;20479;-86
2021/07/05 10:00:09;;;;;;;2.05;1.00;;;;;;;19.03;83.63;100265.50;5051019;28;20044;-84
2021/07/05 10:02:37;;;;;;;3.42;1.70;;;;;;;18.38;93.46;100281.88;5084602;28;20442;-89
2021/07/05 10:05:18;;;;;;;3.50;1.85;;;;;;;17.50;100.00;100268.19;5071971;28;20139;-89
2021/07/05 10:07:58;;;;;;;2.78;1.95;;;;;;;17.19;100.00;100281.88;5057492;28;20051;-87
2021/07/05 10:10:30;;;;;;;3.03;2.00;;;;;;;17.08;100.00;100278.81;5071845;28;20482;-86
2021/07/05 10:13:00;;;;;;;1.75;1.42;;;;;;;17.03;100.00;100281.66;5066602;28;20066;-86
2021/07/05 10:15:30;;;;;;;0.43;0.40;;;;;;;16.89;100.00;100279.56;5061264;28;20052;-87
2021/07/05 10:17:59;;;;;;;0.30;0.30;;;;;;;16.64;100.00;100272.63;5072056;28;20067;-86
2021/07/05 10:20:45;;;;;;;0.10;0.10;;;;;;;16.36;100.00;100280.78;5077204;28;20149;-85
2021/07/05 10:23:16;;;;;;;1.10;0.20;;;;;;;16.17;100.00;100281.50;5061482;28;20044;-86
2021/07/05 10:25:49;;;;;;;1.75;0.25;;;;;;;16.04;99.78;100278.44;5069424;28;20519;-87
2021/07/05 10:28:19;;;;;;;0.80;0.40;;;;;;;15.95;99.76;100262.97;5071124;28;20622;-90
2021/07/05 10:30:49;;;;;;;0.00;0.00;;;;;;;15.96;99.61;100266.47;5073112;28;20054;-89
2021/07/05 10:33:18;;;;;;;0.20;0.15;;;;;;;16.04;99.48;100281.09;5063269;28;20036;-89
2021/07/05 10:35:52;;;;;;;0.10;0.10;;;;;;;16.20;98.68;100284.03;5053869;28;20071;-87
2021/07/05 10:38:41;;;;;;;0.10;0.10;;;;;;;16.43;98.26;100284.06;5052487;28;20048;-88
2021/07/05 10:41:13;;;;;;;0.85;0.30;;;;;;;16.73;96.63;100284.63;5054601;28;20055;-89
2021/07/05 10:43:52;;;;;;;1.00;0.08;;;;;;;17.03;96.04;100284.31;5074315;28;20048;-86
2021/07/05 10:46:52;;;;;;;0.57;0.55;;;;;;;17.30;94.84;100284.06;5068724;28;20043;-87
2021/07/05 10:49:33;;;;;;;0.52;0.30;;;;;;;17.49;94.29;100282.31;5062062;28;20062;-86
2021/07/05 10:52:12;;;;;;;1.25;0.30;;;;;;;17.62;92.92;100282.66;5084260;28;20396;-87
2021/07/05 10:54:55;;;;;;;0.28;0.28;;;;;;;17.67;92.42;100288.59;5066814;28;20048;-87
2021/07/05 10:57:44;;;;;;;0.93;0.30;;;;;;;17.64;92.78;100290.56;5052071;28;20047;-86
2021/07/05 11:00:19;;;;;;;0.40;0.20;;;;;;;17.67;92.51;100293.03;5055281;28;20595;-92
2021/07/05 11:02:48;;;;;;;0.50;0.20;;;;;;;17.67;92.62;100301.84;5088786;28;20020;-93
2021/07/05 11:05:40;;;;;;;0.20;0.20;;;;;;;17.72;92.96;100301.66;5059265;28;20040;-87
2021/07/05 11:08:35;;;;;;;2.33;0.93;;;;;;;17.73;93.00;100294.56;5055531;28;20056;-87
2021/07/05 11:11:32;;;;;;;0.45;0.45;;;;;;;17.82;92.93;100292.38;5070973;28;20044;-86
2021/07/05 11:14:23;;;;;;;1.55;0.50;;;;;;;17.99;92.18;100301.34;5085041;28;20524;-87
2021/07/05 11:17:17;;;;;;;1.42;1.10;;;;;;;18.20;92.10;100302.19;5066491;28;20560;-86
2021/07/05 11:19:59;;;;;;;0.55;0.50;;;;;;;18.54;90.63;100297.06;5071565;28;20459;-88
2021/07/05 11:22:35;;;;;;;1.65;0.93;;;;;;;18.87;89.78;100296.38;5072299;28;20044;-86
2021/07/05 11:25:24;;;;;;;0.57;0.57;;;;;;;19.44;87.58;100294.38;5053774;28;20074;-87
2021/07/05 11:27:59;;;;;;;1.45;0.43;;;;;;;19.99;85.11;100290.63;5069088;28;20057;-87
2021/07/05 11:30:38;;;;;;;0.60;0.60;;;;;;;20.55;81.81;100287.56;5052612;28;20048;-87
2021/07/05 11:33:11;;;;;;;2.47;1.02;;;;;;;21.19;80.42;100278.66;5066640;28;20147;-86
2021/07/05 11:35:44;;;;;;;1.50;0.60;;;;;;;22.55;75.40;100275.63;5070392;28;20032;-87
2021/07/05 11:38:44;;;;;;;0.50;0.50;;;;;;;24.86;65.47;100272.06;5100015;28;20035;-91
2021/07/05 11:41:11;;;;;;;1.35;0.75;;;;;;;26.73;58.24;100273.50;5030260;28;20073;-91
2021/07/05 11:43:54;;;;;;;0.73;0.47;;;;;;;27.44;56.69;100276.59;5093323;28;20059;-90
2021/07/05 11:46:31;;;;;;;0.28;0.28;;;;;;;27.62;54.63;100263.41;5085927;28;20062;-87
2021/07/05 11:49:09;;;;;;;2.55;0.70;;;;;;;27.53;55.12;100267.75;5074635;28;20055;-87
2021/07/05 11:51:44;;;;;;;3.00;0.50;;;;;;;27.10;53.67;100264.19;5071588;28;20068;-86
2021/07/05 11:54:32;;;;;;;4.00;1.00;;;;;;;26.63;54.03;100267.16;5063557;28;20055;-88
2021/07/05 11:57:03;;;;;;;0.75;0.75;;;;;;;26.24;54.19;100262.28;5069230;28;20135;-86
2021/07/05 11:59:54;;;;;;;2.05;0.73;;;;;;;25.77;54.69;100264.22;5059452;28;20044;-90